sensor_id;sensor_type;location;lat;lon;timestamp;pressure;altitude;pressure_sealevel;temperature;humidity
50368;BME280;36281;34.132;-118.018;2024-01-27T00:00:22;100753.34;;;21.96;37.98
50368;BME280;36281;34.132;-118.018;2024-01-27T00:02:52;100754.38;;;21.85;38.73
50368;BME280;36281;34.132;-118.018;2024-01-27T00:05:23;100748.97;;;21.75;38.21
50368;BME280;36281;34.132;-118.018;2024-01-27T00:07:56;100740.63;;;21.81;38.84
50368;BME280;36281;34.132;-118.018;2024-01-27T00:10:26;100754.34;;;21.75;38.69
50368;BME280;36281;34.132;-118.018;2024-01-27T00:12:55;100745.97;;;21.66;39.36
50368;BME280;36281;34.132;-118.018;2024-01-27T00:15:24;100739.72;;;21.55;40.41
50368;BME280;36281;34.132;-118.018;2024-01-27T00:17:54;100743.47;;;21.49;41.84
50368;BME280;36281;34.132;-118.018;2024-01-27T00:20:25;100740.97;;;21.37;42.73
50368;BME280;36281;34.132;-118.018;2024-01-27T00:22:54;100742.47;;;21.23;43.24
50368;BME280;36281;34.132;-118.018;2024-01-27T00:25:23;100747.84;;;21.18;43.51
50368;BME280;36281;34.132;-118.018;2024-01-27T00:27:52;100753.19;;;21.13;42.09
50368;BME280;36281;34.132;-118.018;2024-01-27T00:30:21;100755.81;;;21.03;42.74
50368;BME280;36281;34.132;-118.018;2024-01-27T00:32:51;100750.91;;;20.89;44.32
50368;BME280;36281;34.132;-118.018;2024-01-27T00:35:20;100757.56;;;20.82;44.54
50368;BME280;36281;34.132;-118.018;2024-01-27T00:37:51;100757.56;;;20.82;46.47
50368;BME280;36281;34.132;-118.018;2024-01-27T00:40:20;100761.47;;;20.64;46.71
50368;BME280;36281;34.132;-118.018;2024-01-27T00:42:49;100762.63;;;20.46;46.89
50368;BME280;36281;34.132;-118.018;2024-01-27T00:45:18;100757.09;;;20.31;48.17
50368;BME280;36281;34.132;-118.018;2024-01-27T00:47:48;100758.50;;;20.11;47.37
50368;BME280;36281;34.132;-118.018;2024-01-27T00:50:17;100754.97;;;20.06;48.06
50368;BME280;36281;34.132;-118.018;2024-01-27T00:52:53;100771.78;;;19.96;49.74
50368;BME280;36281;34.132;-118.018;2024-01-27T00:55:25;100761.34;;;19.78;50.68
50368;BME280;36281;34.132;-118.018;2024-01-27T00:57:54;100766.59;;;19.68;50.58
50368;BME280;36281;34.132;-118.018;2024-01-27T01:00:34;100778.69;;;19.48;50.40
50368;BME280;36281;34.132;-118.018;2024-01-27T01:03:03;100772.94;;;19.40;51.12
50368;BME280;36281;34.132;-118.018;2024-01-27T01:05:32;100773.63;;;19.30;52.08
50368;BME280;36281;34.132;-118.018;2024-01-27T01:08:03;100778.78;;;19.15;52.77
50368;BME280;36281;34.132;-118.018;2024-01-27T01:10:34;100778.03;;;19.02;53.11
50368;BME280;36281;34.132;-118.018;2024-01-27T01:13:04;100769.41;;;18.83;53.70
50368;BME280;36281;34.132;-118.018;2024-01-27T01:15:33;100776.81;;;18.76;54.03
50368;BME280;36281;34.132;-118.018;2024-01-27T01:18:02;100764.50;;;18.64;54.39
50368;BME280;36281;34.132;-118.018;2024-01-27T01:20:32;100775.31;;;18.52;54.55
50368;BME280;36281;34.132;-118.018;2024-01-27T01:23:03;100774.31;;;18.41;55.09
50368;BME280;36281;34.132;-118.018;2024-01-27T01:25:32;100775.75;;;18.32;55.34
50368;BME280;36281;34.132;-118.018;2024-01-27T01:28:01;100778.81;;;18.24;55.21
50368;BME280;36281;34.132;-118.018;2024-01-27T01:30:31;100782.47;;;18.18;55.19
50368;BME280;36281;34.132;-118.018;2024-01-27T01:33:01;100779.72;;;18.01;56.32
50368;BME280;36281;34.132;-118.018;2024-01-27T01:35:30;100786.28;;;17.93;55.77
50368;BME280;36281;34.132;-118.018;2024-01-27T01:37:59;100790.97;;;17.86;55.61
50368;BME280;36281;34.132;-118.018;2024-01-27T01:40:30;100790.63;;;17.71;56.03
50368;BME280;36281;34.132;-118.018;2024-01-27T01:42:59;100796.69;;;17.66;56.26
50368;BME280;36281;34.132;-118.018;2024-01-27T01:45:28;100796.22;;;17.57;57.47
50368;BME280;36281;34.132;-118.018;2024-01-27T01:47:58;100796.13;;;17.52;57.84
50368;BME280;36281;34.132;-118.018;2024-01-27T01:50:27;100808.69;;;17.40;58.58
50368;BME280;36281;34.132;-118.018;2024-01-27T01:52:57;100816.97;;;17.27;59.20
50368;BME280;36281;34.132;-118.018;2024-01-27T01:55:26;100818.34;;;17.18;59.89
50368;BME280;36281;34.132;-118.018;2024-01-27T01:57:57;100807.53;;;17.13;60.72
50368;BME280;36281;34.132;-118.018;2024-01-27T02:00:27;100818.56;;;17.04;61.27
50368;BME280;36281;34.132;-118.018;2024-01-27T02:02:56;100810.91;;;16.96;61.93
50368;BME280;36281;34.132;-118.018;2024-01-27T02:05:25;100816.56;;;16.88;62.22
50368;BME280;36281;34.132;-118.018;2024-01-27T02:07:55;100816.19;;;16.85;62.31
50368;BME280;36281;34.132;-118.018;2024-01-27T02:10:28;100805.16;;;16.81;62.31
50368;BME280;36281;34.132;-118.018;2024-01-27T02:13:00;100814.31;;;16.73;63.33
50368;BME280;36281;34.132;-118.018;2024-01-27T02:15:29;100809.06;;;16.67;64.55
50368;BME280;36281;34.132;-118.018;2024-01-27T02:17:58;100818.09;;;16.66;65.02
50368;BME280;36281;34.132;-118.018;2024-01-27T02:20:28;100821.69;;;16.60;65.48
50368;BME280;36281;34.132;-118.018;2024-01-27T02:22:57;100816.69;;;16.51;65.49
50368;BME280;36281;34.132;-118.018;2024-01-27T02:25:28;100805.91;;;16.28;65.87
50368;BME280;36281;34.132;-118.018;2024-01-27T02:27:57;100830.38;;;16.43;66.89
50368;BME280;36281;34.132;-118.018;2024-01-27T02:30:26;100833.72;;;16.39;67.65
50368;BME280;36281;34.132;-118.018;2024-01-27T02:32:56;100833.81;;;16.32;67.75
50368;BME280;36281;34.132;-118.018;2024-01-27T02:35:26;100840.03;;;16.26;67.49
50368;BME280;36281;34.132;-118.018;2024-01-27T02:37:55;100842.91;;;16.13;68.83
50368;BME280;36281;34.132;-118.018;2024-01-27T02:40:24;100848.81;;;16.15;69.24
50368;BME280;36281;34.132;-118.018;2024-01-27T02:42:55;100852.38;;;16.09;69.50
50368;BME280;36281;34.132;-118.018;2024-01-27T02:45:24;100854.78;;;15.98;69.93
50368;BME280;36281;34.132;-118.018;2024-01-27T02:47:53;100852.84;;;15.87;70.41
50368;BME280;36281;34.132;-118.018;2024-01-27T02:50:22;100852.97;;;15.74;70.74
50368;BME280;36281;34.132;-118.018;2024-01-27T02:52:51;100855.28;;;15.70;71.20
50368;BME280;36281;34.132;-118.018;2024-01-27T02:55:20;100856.53;;;15.68;71.50
50368;BME280;36281;34.132;-118.018;2024-01-27T02:57:49;100857.59;;;15.67;71.96
50368;BME280;36281;34.132;-118.018;2024-01-27T03:00:20;100866.88;;;15.58;72.23
50368;BME280;36281;34.132;-118.018;2024-01-27T03:02:49;100868.59;;;15.52;72.32
50368;BME280;36281;34.132;-118.018;2024-01-27T03:05:18;100874.41;;;15.42;72.89
50368;BME280;36281;34.132;-118.018;2024-01-27T03:07:48;100872.59;;;15.36;73.16
50368;BME280;36281;34.132;-118.018;2024-01-27T03:10:17;100871.84;;;15.29;73.73
50368;BME280;36281;34.132;-118.018;2024-01-27T03:12:46;100882.09;;;15.32;73.79
50368;BME280;36281;34.132;-118.018;2024-01-27T03:15:15;100875.50;;;15.10;75.82
50368;BME280;36281;34.132;-118.018;2024-01-27T03:17:46;100879.44;;;15.00;75.12
50368;BME280;36281;34.132;-118.018;2024-01-27T03:20:15;100887.53;;;15.19;75.92
50368;BME280;36281;34.132;-118.018;2024-01-27T03:22:44;100875.31;;;15.05;75.89
50368;BME280;36281;34.132;-118.018;2024-01-27T03:25:13;100887.97;;;15.16;75.12
50368;BME280;36281;34.132;-118.018;2024-01-27T03:27:42;100891.38;;;14.98;75.47
50368;BME280;36281;34.132;-118.018;2024-01-27T03:30:13;100889.41;;;14.87;76.38
50368;BME280;36281;34.132;-118.018;2024-01-27T03:32:42;100878.94;;;14.85;76.63
50368;BME280;36281;34.132;-118.018;2024-01-27T03:35:13;100882.88;;;14.76;76.50
50368;BME280;36281;34.132;-118.018;2024-01-27T03:37:43;100892.38;;;14.65;77.12
50368;BME280;36281;34.132;-118.018;2024-01-27T03:40:13;100894.06;;;14.60;77.78
50368;BME280;36281;34.132;-118.018;2024-01-27T03:42:52;100901.03;;;14.61;78.24
50368;BME280;36281;34.132;-118.018;2024-01-27T03:45:21;100903.50;;;14.62;77.66
50368;BME280;36281;34.132;-118.018;2024-01-27T03:47:50;100900.66;;;14.51;77.46
50368;BME280;36281;34.132;-118.018;2024-01-27T03:50:22;100900.88;;;14.42;78.73
50368;BME280;36281;34.132;-118.018;2024-01-27T03:52:51;100900.66;;;14.51;79.70
50368;BME280;36281;34.132;-118.018;2024-01-27T03:55:20;100892.25;;;14.47;78.19
50368;BME280;36281;34.132;-118.018;2024-01-27T03:57:49;100888.47;;;14.23;79.06
50368;BME280;36281;34.132;-118.018;2024-01-27T04:00:19;100903.00;;;14.27;78.46
50368;BME280;36281;34.132;-118.018;2024-01-27T04:02:48;100901.78;;;14.16;79.54
50368;BME280;36281;34.132;-118.018;2024-01-27T04:05:17;100866.41;;;13.96;80.18
50368;BME280;36281;34.132;-118.018;2024-01-27T04:07:48;100902.38;;;14.25;79.10
50368;BME280;36281;34.132;-118.018;2024-01-27T04:10:19;100904.25;;;14.18;79.07
50368;BME280;36281;34.132;-118.018;2024-01-27T04:12:48;100903.06;;;14.07;79.36
50368;BME280;36281;34.132;-118.018;2024-01-27T04:15:18;100897.50;;;14.02;79.72
50368;BME280;36281;34.132;-118.018;2024-01-27T04:17:47;100895.06;;;14.01;80.30
50368;BME280;36281;34.132;-118.018;2024-01-27T04:20:16;100901.84;;;13.96;80.50
50368;BME280;36281;34.132;-118.018;2024-01-27T04:22:47;100908.41;;;13.94;80.38
50368;BME280;36281;34.132;-118.018;2024-01-27T04:25:16;100906.16;;;13.91;80.76
50368;BME280;36281;34.132;-118.018;2024-01-27T04:27:45;100903.31;;;13.79;80.93
50368;BME280;36281;34.132;-118.018;2024-01-27T04:30:14;100903.31;;;13.66;81.95
50368;BME280;36281;34.132;-118.018;2024-01-27T04:32:44;100908.03;;;13.70;81.88
50368;BME280;36281;34.132;-118.018;2024-01-27T04:35:13;100908.66;;;13.66;81.70
50368;BME280;36281;34.132;-118.018;2024-01-27T04:37:42;100917.03;;;13.56;82.62
50368;BME280;36281;34.132;-118.018;2024-01-27T04:40:14;100918.28;;;13.40;83.81
50368;BME280;36281;34.132;-118.018;2024-01-27T04:42:44;100924.03;;;13.44;83.36
50368;BME280;36281;34.132;-118.018;2024-01-27T04:45:15;100919.31;;;13.46;82.36
50368;BME280;36281;34.132;-118.018;2024-01-27T04:47:44;100916.22;;;13.36;83.04
50368;BME280;36281;34.132;-118.018;2024-01-27T04:50:13;100919.72;;;13.30;83.29
50368;BME280;36281;34.132;-118.018;2024-01-27T04:52:42;100915.84;;;13.39;81.84
50368;BME280;36281;34.132;-118.018;2024-01-27T04:55:13;100920.13;;;13.33;81.57
50368;BME280;36281;34.132;-118.018;2024-01-27T04:57:42;100920.53;;;13.30;80.67
50368;BME280;36281;34.132;-118.018;2024-01-27T05:00:12;100920.72;;;13.22;81.26
50368;BME280;36281;34.132;-118.018;2024-01-27T05:02:42;100927.88;;;13.22;81.66
50368;BME280;36281;34.132;-118.018;2024-01-27T05:05:12;100915.97;;;13.11;81.35
50368;BME280;36281;34.132;-118.018;2024-01-27T05:07:41;100929.47;;;13.09;80.65
50368;BME280;36281;34.132;-118.018;2024-01-27T05:10:11;100929.47;;;13.09;80.38
50368;BME280;36281;34.132;-118.018;2024-01-27T05:12:44;100924.56;;;13.06;80.33
50368;BME280;36281;34.132;-118.018;2024-01-27T05:15:13;100934.78;;;13.03;80.86
50368;BME280;36281;34.132;-118.018;2024-01-27T05:17:42;100937.84;;;13.00;81.40
50368;BME280;36281;34.132;-118.018;2024-01-27T05:20:11;100937.63;;;13.01;81.52
50368;BME280;36281;34.132;-118.018;2024-01-27T05:22:41;100938.06;;;12.98;82.10
50368;BME280;36281;34.132;-118.018;2024-01-27T05:25:10;100941.31;;;12.93;82.19
50368;BME280;36281;34.132;-118.018;2024-01-27T05:27:39;100935.97;;;12.87;83.26
50368;BME280;36281;34.132;-118.018;2024-01-27T05:30:10;100946.41;;;12.88;83.12
50368;BME280;36281;34.132;-118.018;2024-01-27T05:32:40;100952.34;;;12.90;83.19
50368;BME280;36281;34.132;-118.018;2024-01-27T05:35:09;100946.59;;;12.87;82.19
50368;BME280;36281;34.132;-118.018;2024-01-27T05:37:39;100946.59;;;12.87;82.04
50368;BME280;36281;34.132;-118.018;2024-01-27T05:40:09;100949.47;;;12.85;81.05
50368;BME280;36281;34.132;-118.018;2024-01-27T05:42:39;100946.19;;;12.83;79.96
50368;BME280;36281;34.132;-118.018;2024-01-27T05:45:12;100935.94;;;12.80;78.74
50368;BME280;36281;34.132;-118.018;2024-01-27T05:47:41;100942.28;;;12.79;78.03
50368;BME280;36281;34.132;-118.018;2024-01-27T05:50:11;100939.81;;;12.71;77.75
50368;BME280;36281;34.132;-118.018;2024-01-27T05:52:40;100936.94;;;12.73;77.16
50368;BME280;36281;34.132;-118.018;2024-01-27T05:55:09;100942.47;;;12.78;75.97
50368;BME280;36281;34.132;-118.018;2024-01-27T05:57:40;100931.63;;;12.73;76.48
50368;BME280;36281;34.132;-118.018;2024-01-27T06:00:12;100940.81;;;12.70;76.25
50368;BME280;36281;34.132;-118.018;2024-01-27T06:02:42;100934.28;;;12.73;77.01
50368;BME280;36281;34.132;-118.018;2024-01-27T06:05:11;100941.06;;;12.75;76.01
50368;BME280;36281;34.132;-118.018;2024-01-27T06:07:40;100944.91;;;12.73;76.13
50368;BME280;36281;34.132;-118.018;2024-01-27T06:10:10;100945.53;;;12.68;76.34
50368;BME280;36281;34.132;-118.018;2024-01-27T06:12:39;100945.78;;;12.80;77.07
50368;BME280;36281;34.132;-118.018;2024-01-27T06:15:11;100940.59;;;12.65;77.27
50368;BME280;36281;34.132;-118.018;2024-01-27T06:17:40;100955.50;;;12.59;77.32
50368;BME280;36281;34.132;-118.018;2024-01-27T06:20:10;100954.47;;;12.54;77.94
50368;BME280;36281;34.132;-118.018;2024-01-27T06:22:39;100951.59;;;12.49;78.22
50368;BME280;36281;34.132;-118.018;2024-01-27T06:25:09;100953.97;;;12.37;79.06
50368;BME280;36281;34.132;-118.018;2024-01-27T06:27:39;100953.13;;;12.30;79.88
50368;BME280;36281;34.132;-118.018;2024-01-27T06:30:13;100958.81;;;12.27;79.58
50368;BME280;36281;34.132;-118.018;2024-01-27T06:32:43;100945.97;;;12.30;79.55
50368;BME280;36281;34.132;-118.018;2024-01-27T06:35:12;100943.91;;;12.32;79.58
50368;BME280;36281;34.132;-118.018;2024-01-27T06:37:41;100958.88;;;12.33;80.16
50368;BME280;36281;34.132;-118.018;2024-01-27T06:40:11;100951.72;;;12.34;80.12
50368;BME280;36281;34.132;-118.018;2024-01-27T06:42:41;100948.78;;;12.22;79.89
50368;BME280;36281;34.132;-118.018;2024-01-27T06:45:12;100944.88;;;12.18;80.75
50368;BME280;36281;34.132;-118.018;2024-01-27T06:47:42;100943.63;;;12.14;80.88
50368;BME280;36281;34.132;-118.018;2024-01-27T06:50:11;100941.81;;;12.21;81.30
50368;BME280;36281;34.132;-118.018;2024-01-27T06:52:42;100939.50;;;12.05;81.31
50368;BME280;36281;34.132;-118.018;2024-01-27T06:55:11;100943.53;;;12.01;81.66
50368;BME280;36281;34.132;-118.018;2024-01-27T06:57:40;100944.91;;;11.90;83.07
50368;BME280;36281;34.132;-118.018;2024-01-27T07:00:12;100936.06;;;11.83;83.24
50368;BME280;36281;34.132;-118.018;2024-01-27T07:02:44;100941.63;;;11.88;83.49
50368;BME280;36281;34.132;-118.018;2024-01-27T07:05:13;100938.06;;;11.81;83.59
50368;BME280;36281;34.132;-118.018;2024-01-27T07:07:43;100939.91;;;11.80;84.05
50368;BME280;36281;34.132;-118.018;2024-01-27T07:10:12;100945.69;;;11.84;83.82
50368;BME280;36281;34.132;-118.018;2024-01-27T07:12:41;100947.63;;;11.75;83.58
50368;BME280;36281;34.132;-118.018;2024-01-27T07:15:12;100942.22;;;11.62;84.76
50368;BME280;36281;34.132;-118.018;2024-01-27T07:17:41;100944.34;;;11.73;84.21
50368;BME280;36281;34.132;-118.018;2024-01-27T07:20:11;100950.88;;;11.71;84.84
50368;BME280;36281;34.132;-118.018;2024-01-27T07:22:40;100949.34;;;11.61;84.83
50368;BME280;36281;34.132;-118.018;2024-01-27T07:25:09;100952.44;;;11.65;84.78
50368;BME280;36281;34.132;-118.018;2024-01-27T07:27:41;100937.34;;;11.65;85.09
50368;BME280;36281;34.132;-118.018;2024-01-27T07:30:12;100944.03;;;11.83;84.91
50368;BME280;36281;34.132;-118.018;2024-01-27T07:32:41;100957.19;;;11.70;84.85
50368;BME280;36281;34.132;-118.018;2024-01-27T07:35:11;100953.22;;;11.59;85.05
50368;BME280;36281;34.132;-118.018;2024-01-27T07:37:40;100950.75;;;11.57;85.20
50368;BME280;36281;34.132;-118.018;2024-01-27T07:40:10;100961.31;;;11.51;85.27
50368;BME280;36281;34.132;-118.018;2024-01-27T07:42:39;100957.50;;;11.38;86.73
50368;BME280;36281;34.132;-118.018;2024-01-27T07:45:11;100961.06;;;11.46;86.38
50368;BME280;36281;34.132;-118.018;2024-01-27T07:47:43;100963.72;;;11.46;86.15
50368;BME280;36281;34.132;-118.018;2024-01-27T07:50:13;100965.72;;;11.65;85.52
50368;BME280;36281;34.132;-118.018;2024-01-27T07:52:42;100947.56;;;11.41;85.46
50368;BME280;36281;34.132;-118.018;2024-01-27T07:55:11;100955.94;;;11.23;87.22
50368;BME280;36281;34.132;-118.018;2024-01-27T07:57:40;100943.44;;;11.38;86.48
50368;BME280;36281;34.132;-118.018;2024-01-27T08:00:12;100940.72;;;11.31;86.13
50368;BME280;36281;34.132;-118.018;2024-01-27T08:02:43;100942.63;;;11.16;87.10
50368;BME280;36281;34.132;-118.018;2024-01-27T08:05:12;100937.44;;;11.08;87.81
50368;BME280;36281;34.132;-118.018;2024-01-27T08:07:45;100942.94;;;11.06;88.29
50368;BME280;36281;34.132;-118.018;2024-01-27T08:10:14;100942.63;;;11.16;87.37
50368;BME280;36281;34.132;-118.018;2024-01-27T08:12:44;100921.38;;;11.09;87.09
50368;BME280;36281;34.132;-118.018;2024-01-27T08:15:14;100935.78;;;11.28;87.36
50368;BME280;36281;34.132;-118.018;2024-01-27T08:17:44;100931.66;;;11.19;87.22
50368;BME280;36281;34.132;-118.018;2024-01-27T08:20:13;100927.28;;;11.11;87.46
50368;BME280;36281;34.132;-118.018;2024-01-27T08:22:43;100930.31;;;11.08;87.87
50368;BME280;36281;34.132;-118.018;2024-01-27T08:25:12;100933.53;;;11.25;87.33
50368;BME280;36281;34.132;-118.018;2024-01-27T08:27:41;100938.66;;;11.27;86.42
50368;BME280;36281;34.132;-118.018;2024-01-27T08:30:11;100947.22;;;11.07;88.37
50368;BME280;36281;34.132;-118.018;2024-01-27T08:32:42;100931.97;;;11.09;88.45
50368;BME280;36281;34.132;-118.018;2024-01-27T08:35:11;100935.81;;;11.07;87.43
50368;BME280;36281;34.132;-118.018;2024-01-27T08:37:40;100910.66;;;10.81;88.23
50368;BME280;36281;34.132;-118.018;2024-01-27T08:40:10;100928.47;;;10.87;88.78
50368;BME280;36281;34.132;-118.018;2024-01-27T08:42:40;100918.25;;;10.84;88.45
50368;BME280;36281;34.132;-118.018;2024-01-27T08:45:09;100921.88;;;10.83;88.92
50368;BME280;36281;34.132;-118.018;2024-01-27T08:47:38;100911.97;;;10.71;89.25
50368;BME280;36281;34.132;-118.018;2024-01-27T08:50:10;100908.13;;;10.73;88.86
50368;BME280;36281;34.132;-118.018;2024-01-27T08:52:39;100897.47;;;10.67;88.63
50368;BME280;36281;34.132;-118.018;2024-01-27T08:55:08;100906.22;;;10.67;89.16
50368;BME280;36281;34.132;-118.018;2024-01-27T08:57:37;100900.31;;;10.65;88.99
50368;BME280;36281;34.132;-118.018;2024-01-27T09:00:07;100895.81;;;10.66;88.82
50368;BME280;36281;34.132;-118.018;2024-01-27T09:02:38;100909.88;;;10.66;88.99
50368;BME280;36281;34.132;-118.018;2024-01-27T09:05:08;100895.00;;;10.65;88.45
50368;BME280;36281;34.132;-118.018;2024-01-27T09:07:38;100892.72;;;10.62;89.00
50368;BME280;36281;34.132;-118.018;2024-01-27T09:10:07;100881.31;;;10.61;89.19
50368;BME280;36281;34.132;-118.018;2024-01-27T09:12:38;100884.66;;;10.70;88.85
50368;BME280;36281;34.132;-118.018;2024-01-27T09:15:08;100887.69;;;10.67;88.39
50368;BME280;36281;34.132;-118.018;2024-01-27T09:17:37;100886.41;;;10.63;88.43
50368;BME280;36281;34.132;-118.018;2024-01-27T09:20:09;100885.78;;;10.61;88.13
50368;BME280;36281;34.132;-118.018;2024-01-27T09:22:38;100876.84;;;10.47;88.71
50368;BME280;36281;34.132;-118.018;2024-01-27T09:25:08;100901.97;;;10.51;89.36
50368;BME280;36281;34.132;-118.018;2024-01-27T09:27:37;100899.59;;;10.56;88.72
50368;BME280;36281;34.132;-118.018;2024-01-27T09:30:07;100889.81;;;10.57;88.79
50368;BME280;36281;34.132;-118.018;2024-01-27T09:32:37;100886.53;;;10.55;88.43
50368;BME280;36281;34.132;-118.018;2024-01-27T09:35:08;100894.84;;;10.52;88.84
50368;BME280;36281;34.132;-118.018;2024-01-27T09:37:37;100896.69;;;10.51;88.71
50368;BME280;36281;34.132;-118.018;2024-01-27T09:40:07;100888.91;;;10.50;88.33
50368;BME280;36281;34.132;-118.018;2024-01-27T09:42:38;100883.09;;;10.40;88.36
50368;BME280;36281;34.132;-118.018;2024-01-27T09:45:10;100888.47;;;10.46;88.37
50368;BME280;36281;34.132;-118.018;2024-01-27T09:47:39;100898.78;;;10.41;88.24
50368;BME280;36281;34.132;-118.018;2024-01-27T09:50:12;100893.03;;;10.38;88.93
50368;BME280;36281;34.132;-118.018;2024-01-27T09:52:42;100886.31;;;10.35;88.71
50368;BME280;36281;34.132;-118.018;2024-01-27T09:55:12;100889.78;;;10.35;88.92
50368;BME280;36281;34.132;-118.018;2024-01-27T09:57:42;100891.50;;;10.28;88.80
50368;BME280;36281;34.132;-118.018;2024-01-27T10:00:14;100887.59;;;10.24;88.97
50368;BME280;36281;34.132;-118.018;2024-01-27T10:02:46;100890.25;;;10.24;88.78
50368;BME280;36281;34.132;-118.018;2024-01-27T10:05:17;100899.97;;;10.09;90.08
50368;BME280;36281;34.132;-118.018;2024-01-27T10:07:47;100896.88;;;10.05;90.65
50368;BME280;36281;34.132;-118.018;2024-01-27T10:10:16;100894.13;;;10.14;89.91
50368;BME280;36281;34.132;-118.018;2024-01-27T10:12:47;100900.22;;;10.14;89.66
50368;BME280;36281;34.132;-118.018;2024-01-27T10:15:20;100906.81;;;10.18;89.27
50368;BME280;36281;34.132;-118.018;2024-01-27T10:17:50;100898.88;;;10.18;88.69
50368;BME280;36281;34.132;-118.018;2024-01-27T10:20:21;100877.97;;;10.08;88.65
50368;BME280;36281;34.132;-118.018;2024-01-27T10:22:50;100896.41;;;10.17;88.36
50368;BME280;36281;34.132;-118.018;2024-01-27T10:25:19;100887.72;;;10.23;87.78
50368;BME280;36281;34.132;-118.018;2024-01-27T10:27:48;100879.53;;;10.18;87.95
50368;BME280;36281;34.132;-118.018;2024-01-27T10:30:18;100882.63;;;10.21;88.04
50368;BME280;36281;34.132;-118.018;2024-01-27T10:32:55;100871.22;;;10.21;87.97
50368;BME280;36281;34.132;-118.018;2024-01-27T10:35:30;100879.97;;;10.21;88.14
50368;BME280;36281;34.132;-118.018;2024-01-27T10:37:59;100883.13;;;10.25;87.78
50368;BME280;36281;34.132;-118.018;2024-01-27T10:40:28;100877.81;;;10.25;88.07
50368;BME280;36281;34.132;-118.018;2024-01-27T10:43:02;100870.41;;;10.20;88.27
50368;BME280;36281;34.132;-118.018;2024-01-27T10:45:38;100868.72;;;10.19;88.13
50368;BME280;36281;34.132;-118.018;2024-01-27T10:48:09;100859.53;;;10.15;87.78
50368;BME280;36281;34.132;-118.018;2024-01-27T10:50:41;100857.53;;;10.17;87.70
50368;BME280;36281;34.132;-118.018;2024-01-27T10:53:21;100856.63;;;10.10;88.07
50368;BME280;36281;34.132;-118.018;2024-01-27T10:55:53;100863.91;;;10.08;87.61
50368;BME280;36281;34.132;-118.018;2024-01-27T10:58:24;100851.34;;;10.10;87.75
50368;BME280;36281;34.132;-118.018;2024-01-27T11:00:53;100845.22;;;10.09;87.32
50368;BME280;36281;34.132;-118.018;2024-01-27T11:03:25;100847.69;;;10.11;86.82
50368;BME280;36281;34.132;-118.018;2024-01-27T11:05:56;100850.31;;;10.11;87.02
50368;BME280;36281;34.132;-118.018;2024-01-27T11:08:25;100852.16;;;10.10;87.14
50368;BME280;36281;34.132;-118.018;2024-01-27T11:10:56;100845.78;;;10.05;86.77
50368;BME280;36281;34.132;-118.018;2024-01-27T11:13:28;100843.47;;;10.02;87.26
50368;BME280;36281;34.132;-118.018;2024-01-27T11:15:57;100839.56;;;9.98;87.48
50368;BME280;36281;34.132;-118.018;2024-01-27T11:18:29;100838.00;;;10.03;87.47
50368;BME280;36281;34.132;-118.018;2024-01-27T11:21:00;100836.56;;;10.01;86.97
50368;BME280;36281;34.132;-118.018;2024-01-27T11:23:33;100841.03;;;10.00;87.00
50368;BME280;36281;34.132;-118.018;2024-01-27T11:26:04;100844.66;;;9.99;87.42
50368;BME280;36281;34.132;-118.018;2024-01-27T11:28:33;100836.91;;;9.98;87.43
50368;BME280;36281;34.132;-118.018;2024-01-27T11:31:04;100833.81;;;9.94;87.35
50368;BME280;36281;34.132;-118.018;2024-01-27T11:33:33;100822.13;;;9.89;87.32
50368;BME280;36281;34.132;-118.018;2024-01-27T11:36:20;100822.78;;;9.91;87.69
50368;BME280;36281;34.132;-118.018;2024-01-27T11:38:51;100828.25;;;9.89;87.50
50368;BME280;36281;34.132;-118.018;2024-01-27T11:41:27;100829.16;;;9.96;87.55
50368;BME280;36281;34.132;-118.018;2024-01-27T11:43:57;100833.19;;;9.92;87.33
50368;BME280;36281;34.132;-118.018;2024-01-27T11:46:28;100820.78;;;9.78;87.70
50368;BME280;36281;34.132;-118.018;2024-01-27T11:48:57;100832.44;;;9.83;87.55
50368;BME280;36281;34.132;-118.018;2024-01-27T11:51:28;100831.00;;;9.81;87.34
50368;BME280;36281;34.132;-118.018;2024-01-27T11:53:58;100817.13;;;9.79;87.73
50368;BME280;36281;34.132;-118.018;2024-01-27T11:56:28;100824.16;;;9.72;87.97
50368;BME280;36281;34.132;-118.018;2024-01-27T11:58:57;100835.63;;;9.64;88.82
50368;BME280;36281;34.132;-118.018;2024-01-27T12:01:26;100825.25;;;9.63;88.54
50368;BME280;36281;34.132;-118.018;2024-01-27T12:03:55;100829.72;;;9.62;88.64
50368;BME280;36281;34.132;-118.018;2024-01-27T12:06:24;100826.44;;;9.60;88.76
50368;BME280;36281;34.132;-118.018;2024-01-27T12:08:56;100816.56;;;9.54;89.34
50368;BME280;36281;34.132;-118.018;2024-01-27T12:11:26;100818.41;;;9.53;89.34
50368;BME280;36281;34.132;-118.018;2024-01-27T12:13:55;100814.03;;;9.61;89.04
50368;BME280;36281;34.132;-118.018;2024-01-27T12:16:24;100807.81;;;9.53;89.53
50368;BME280;36281;34.132;-118.018;2024-01-27T12:18:53;100803.63;;;9.59;88.99
50368;BME280;36281;34.132;-118.018;2024-01-27T12:21:23;100803.34;;;9.54;89.31
50368;BME280;36281;34.132;-118.018;2024-01-27T12:23:55;100800.34;;;9.57;89.61
50368;BME280;36281;34.132;-118.018;2024-01-27T12:26:28;100803.34;;;9.54;89.23
50368;BME280;36281;34.132;-118.018;2024-01-27T12:28:57;100803.06;;;9.49;89.42
50368;BME280;36281;34.132;-118.018;2024-01-27T12:31:27;100792.34;;;9.50;89.40
50368;BME280;36281;34.132;-118.018;2024-01-27T12:33:56;100798.16;;;9.46;89.78